createdAt,value
2023-04-14T00:01:19.488Z,5.00
2023-04-14T00:03:24.850Z,4.90
2023-04-14T00:05:40.817Z,5.30
2023-04-14T00:07:49.128Z,5.30
2023-04-14T00:09:54.242Z,5.40
2023-04-14T00:11:59.617Z,5.30
2023-04-14T00:14:10.505Z,5.10
2023-04-14T00:16:15.907Z,4.90
2023-04-14T00:18:21.599Z,5.00
2023-04-14T00:20:27.359Z,4.60
2023-04-14T00:22:32.497Z,4.60
2023-04-14T00:24:47.640Z,4.80
2023-04-14T00:26:53.356Z,4.80
2023-04-14T00:28:59.292Z,4.70
2023-04-14T00:31:04.712Z,5.10
2023-04-14T00:33:10.275Z,4.80
2023-04-14T00:35:32.219Z,4.70
2023-04-14T00:37:39.422Z,5.10
2023-04-14T00:39:48.864Z,4.70
2023-04-14T00:41:55.369Z,5.00
2023-04-14T00:44:06.498Z,4.60
2023-04-14T00:46:13.348Z,4.70
2023-04-14T00:48:20.904Z,4.20
2023-04-14T00:50:26.428Z,3.80
2023-04-14T00:52:35.795Z,3.40
2023-04-14T00:54:45.119Z,3.60
2023-04-14T00:56:54.638Z,3.90
2023-04-14T00:59:01.912Z,4.40
2023-04-14T01:01:20.364Z,4.30
2023-04-14T01:03:27.278Z,4.30
2023-04-14T01:05:47.133Z,4.80
2023-04-14T01:07:55.931Z,4.60
2023-04-14T01:10:04.964Z,4.00
2023-04-14T01:12:30.234Z,4.30
2023-04-14T01:14:54.529Z,4.60
2023-04-14T01:17:13.775Z,4.80
2023-04-14T01:19:43.938Z,4.40
2023-04-14T01:22:02.619Z,4.50
2023-04-14T01:24:39.479Z,4.60
2023-04-14T01:26:45.531Z,4.60
2023-04-14T01:29:40.098Z,4.40
2023-04-14T01:32:03.300Z,4.40
2023-04-14T01:34:22.875Z,4.50
2023-04-14T01:36:36.795Z,4.10
2023-04-14T01:38:46.852Z,4.00
2023-04-14T01:40:57.277Z,3.70
2023-04-14T01:43:07.519Z,3.40
2023-04-14T01:45:23.203Z,3.40
2023-04-14T01:47:34.119Z,3.80
2023-04-14T01:49:44.098Z,3.80
2023-04-14T01:51:50.634Z,4.00
2023-04-14T01:54:01.910Z,3.90
2023-04-14T01:56:12.198Z,3.70
2023-04-14T01:58:18.986Z,3.50
2023-04-14T02:00:26.173Z,3.60
2023-04-14T02:02:37.866Z,3.90
2023-04-14T02:04:47.036Z,3.80
2023-04-14T02:06:54.389Z,3.60
2023-04-14T02:09:04.992Z,3.20
2023-04-14T02:11:12.777Z,3.70
2023-04-14T02:13:21.054Z,3.90
2023-04-14T02:15:29.914Z,3.90
2023-04-14T02:17:47.564Z,4.10
2023-04-14T02:19:55.999Z,4.00
2023-04-14T02:22:03.700Z,3.40
2023-04-14T02:24:12.138Z,3.90
2023-04-14T02:26:21.988Z,3.50
2023-04-14T02:28:37.985Z,3.70
2023-04-14T02:30:51.124Z,3.80
2023-04-14T02:33:07.242Z,3.80
2023-04-14T02:35:25.215Z,3.70
2023-04-14T02:37:43.928Z,3.80
2023-04-14T02:39:56.890Z,4.00
2023-04-14T02:42:13.937Z,3.90
2023-04-14T02:44:32.038Z,3.60
2023-04-14T02:46:48.177Z,3.80
2023-04-14T02:48:57.926Z,3.80
2023-04-14T02:51:04.700Z,3.90
2023-04-14T02:53:11.599Z,3.70
2023-04-14T02:55:20.422Z,3.70
2023-04-14T02:57:28.529Z,3.60
2023-04-14T02:59:34.997Z,3.90
2023-04-14T03:01:49.669Z,3.90
2023-04-14T03:04:00.957Z,3.90
2023-04-14T03:06:13.556Z,3.90
2023-04-14T03:08:19.874Z,3.80
2023-04-14T03:10:29.505Z,3.90
2023-04-14T03:12:38.142Z,3.90
2023-04-14T03:14:46.961Z,3.50
2023-04-14T03:16:55.740Z,3.70
2023-04-14T03:19:08.138Z,3.90
2023-04-14T03:21:25.370Z,3.60
2023-04-14T03:23:34.108Z,3.80
2023-04-14T03:25:47.018Z,3.50
2023-04-14T03:28:04.472Z,3.40
2023-04-14T03:30:13.736Z,3.70
2023-04-14T03:32:21.275Z,3.80
2023-04-14T03:34:34.738Z,3.80
2023-04-14T03:36:41.808Z,3.90
2023-04-14T03:38:51.593Z,3.60
2023-04-14T03:41:05.700Z,3.60
2023-04-14T03:43:14.564Z,3.90
2023-04-14T03:45:28.720Z,3.70
2023-04-14T03:47:38.303Z,3.90
2023-04-14T03:49:56.146Z,3.70
2023-04-14T03:52:11.212Z,3.70
2023-04-14T03:54:23.036Z,3.70
2023-04-14T03:56:29.913Z,3.70
2023-04-14T03:58:37.373Z,3.70
2023-04-14T04:00:47.957Z,3.70
2023-04-14T04:02:56.201Z,3.80
2023-04-14T04:05:18.112Z,3.80
2023-04-14T04:07:25.622Z,3.70
2023-04-14T04:09:34.590Z,3.90
2023-04-14T04:11:42.768Z,3.80
2023-04-14T04:13:52.840Z,3.90
2023-04-14T04:15:59.180Z,4.00
2023-04-14T04:18:06.828Z,3.90
2023-04-14T04:20:18.977Z,4.00
2023-04-14T04:22:29.408Z,4.00
2023-04-14T04:24:41.296Z,3.90
2023-04-14T04:26:56.027Z,3.90
2023-04-14T04:29:02.375Z,3.80
2023-04-14T04:31:08.873Z,4.00
2023-04-14T04:33:19.054Z,3.90
2023-04-14T04:35:34.373Z,3.60
2023-04-14T04:37:46.223Z,3.70
2023-04-14T04:39:55.162Z,4.00
2023-04-14T04:42:08.293Z,3.50
2023-04-14T04:44:33.524Z,3.70
2023-04-14T04:47:02.048Z,3.90
2023-04-14T04:49:10.444Z,3.60
2023-04-14T04:51:19.225Z,3.70
2023-04-14T04:53:24.316Z,3.60
2023-04-14T04:55:29.913Z,3.90
2023-04-14T04:57:35.519Z,3.60
2023-04-14T04:59:49.196Z,3.80
2023-04-14T05:01:57.122Z,3.70
2023-04-14T05:04:09.350Z,3.40
2023-04-14T05:06:15.029Z,3.20
2023-04-14T05:08:24.942Z,3.30
2023-04-14T05:10:30.720Z,2.90
2023-04-14T05:12:38.201Z,3.30
2023-04-14T05:14:44.852Z,2.90
2023-04-14T05:16:53.485Z,3.00
2023-04-14T05:19:06.186Z,2.70
2023-04-14T05:21:13.510Z,2.70
2023-04-14T05:23:25.520Z,3.20
2023-04-14T05:25:32.661Z,3.30
2023-04-14T05:27:38.244Z,3.30
2023-04-14T05:29:46.545Z,3.30
2023-04-14T05:31:53.060Z,3.30
2023-04-14T05:34:05.337Z,3.20
2023-04-14T05:36:13.683Z,3.10
2023-04-14T05:38:19.360Z,3.40
2023-04-14T05:40:28.914Z,3.20
2023-04-14T05:42:34.529Z,3.20
2023-04-14T05:44:43.258Z,3.10
2023-04-14T05:46:50.272Z,3.00
2023-04-14T05:49:01.571Z,3.20
2023-04-14T05:51:07.300Z,3.40
2023-04-14T05:53:16.489Z,3.30
2023-04-14T05:55:27.281Z,3.20
2023-04-14T05:57:35.220Z,3.50
2023-04-14T05:59:42.678Z,3.40
2023-04-14T06:01:47.747Z,3.30
2023-04-14T06:03:57.592Z,3.10
2023-04-14T06:06:03.265Z,3.30
2023-04-14T06:08:10.298Z,3.20
2023-04-14T06:10:18.435Z,3.20
2023-04-14T06:12:26.714Z,3.20
2023-04-14T06:14:40.777Z,3.40
2023-04-14T06:16:46.631Z,3.10
2023-04-14T06:18:52.090Z,3.30
2023-04-14T06:21:02.872Z,3.30
2023-04-14T06:23:07.941Z,3.40
2023-04-14T06:25:19.783Z,3.70
2023-04-14T06:27:27.303Z,3.60
2023-04-14T06:29:38.413Z,3.70
2023-04-14T06:31:45.404Z,3.70
2023-04-14T06:33:53.198Z,3.70
2023-04-14T06:35:59.742Z,3.70
2023-04-14T06:38:06.325Z,3.70
2023-04-14T06:40:15.482Z,3.80
2023-04-14T06:42:21.215Z,3.50
2023-04-14T06:44:33.909Z,3.60
2023-04-14T06:46:41.769Z,3.40
2023-04-14T06:48:48.393Z,3.70
2023-04-14T06:50:58.355Z,3.60
2023-04-14T06:53:08.674Z,3.90
2023-04-14T06:55:22.021Z,4.00
2023-04-14T06:57:34.708Z,3.80
2023-04-14T06:59:41.585Z,3.80
2023-04-14T07:01:50.897Z,3.50
2023-04-14T07:04:08.235Z,3.80
2023-04-14T07:06:19.634Z,3.60
2023-04-14T07:08:34.596Z,3.60
2023-04-14T07:10:40.986Z,3.80
2023-04-14T07:12:47.113Z,4.00
2023-04-14T07:14:53.871Z,4.10
2023-04-14T07:17:01.764Z,4.20
2023-04-14T07:19:07.282Z,4.40
2023-04-14T07:21:19.548Z,4.30
2023-04-14T07:23:28.871Z,4.40
2023-04-14T07:28:06.484Z,4.50
2023-04-14T07:30:14.140Z,4.60
2023-04-14T07:32:24.365Z,4.80
2023-04-14T07:34:34.499Z,5.00
2023-04-14T07:36:40.066Z,5.00
2023-04-14T07:38:47.564Z,4.70
2023-04-14T07:40:53.077Z,4.60
2023-04-14T07:42:59.669Z,5.00
2023-04-14T07:45:06.612Z,5.40
2023-04-14T07:47:15.255Z,5.20
2023-04-14T07:49:23.018Z,5.30
2023-04-14T07:51:30.861Z,5.00
2023-04-14T07:53:40.650Z,5.10
2023-04-14T07:55:50.812Z,5.30
2023-04-14T07:57:57.508Z,5.50
2023-04-14T08:00:02.805Z,5.40
2023-04-14T08:02:29.807Z,5.50
2023-04-14T08:04:40.654Z,5.40
2023-04-14T08:06:46.381Z,5.50
2023-04-14T08:08:52.482Z,5.50
2023-04-14T08:10:57.944Z,5.40
2023-04-14T08:13:03.957Z,5.50
2023-04-14T08:15:15.840Z,5.60
2023-04-14T08:17:27.341Z,5.70
2023-04-14T08:19:36.087Z,5.80
2023-04-14T08:21:51.673Z,6.10
2023-04-14T08:23:57.403Z,6.00
2023-04-14T08:26:04.990Z,6.00
2023-04-14T08:28:13.946Z,5.80
2023-04-14T08:30:20.376Z,5.90
2023-04-14T08:32:30.666Z,6.20
2023-04-14T08:34:38.114Z,6.30
2023-04-14T08:36:48.312Z,6.40
2023-04-14T08:38:57.635Z,6.40
2023-04-14T08:41:07.385Z,6.40
2023-04-14T08:43:15.444Z,6.40
2023-04-14T08:45:24.415Z,6.60
2023-04-14T08:47:34.804Z,6.60
2023-04-14T08:49:45.648Z,6.80
2023-04-14T08:52:02.786Z,6.70
2023-04-14T08:54:15.888Z,6.90
2023-04-14T08:56:24.031Z,6.90
2023-04-14T08:58:33.813Z,6.90
2023-04-14T09:00:40.492Z,7.10
2023-04-14T09:02:49.487Z,6.90
2023-04-14T09:04:57.593Z,7.00
2023-04-14T09:07:07.212Z,7.30
2023-04-14T09:09:13.947Z,7.40
2023-04-14T09:11:20.208Z,7.40
2023-04-14T09:13:33.247Z,7.40
2023-04-14T09:15:45.095Z,7.30
2023-04-14T09:17:50.510Z,7.50
2023-04-14T09:20:34.683Z,7.50
2023-04-14T09:22:26.915Z,7.50
2023-04-14T09:24:34.509Z,7.70
2023-04-14T09:26:39.640Z,7.70
2023-04-14T09:28:45.109Z,7.70
2023-04-14T09:30:53.904Z,7.80
2023-04-14T09:33:00.127Z,7.80
2023-04-14T09:35:16.977Z,7.80
2023-04-14T09:37:22.717Z,7.90
2023-04-14T09:39:33.243Z,8.10
2023-04-14T09:41:39.159Z,8.20
2023-04-14T09:43:45.947Z,8.60
2023-04-14T09:45:53.073Z,8.70
2023-04-14T09:48:13.332Z,8.50
2023-04-14T09:50:19.642Z,8.60
2023-04-14T09:52:28.474Z,8.60
2023-04-14T09:54:44.015Z,9.00
2023-04-14T09:56:50.993Z,8.90
2023-04-14T09:59:05.875Z,9.10
2023-04-14T10:01:17.028Z,9.10
2023-04-14T10:03:42.807Z,8.90
2023-04-14T10:05:52.328Z,9.00
2023-04-14T10:08:02.419Z,9.00
2023-04-14T10:10:19.892Z,8.80
2023-04-14T10:12:24.925Z,9.00
2023-04-14T10:14:34.501Z,9.00
2023-04-14T10:16:39.630Z,9.20
2023-04-14T10:18:46.838Z,9.30
2023-04-14T10:20:55.800Z,9.30
2023-04-14T10:23:02.573Z,9.60
2023-04-14T10:25:22.867Z,9.60
2023-04-14T10:27:30.473Z,9.70
2023-04-14T10:29:39.917Z,9.60
2023-04-14T10:31:48.458Z,9.70
2023-04-14T10:34:14.240Z,9.80
2023-04-14T10:36:30.985Z,9.80
2023-04-14T10:38:46.518Z,9.90
2023-04-14T10:40:57.197Z,9.90
2023-04-14T10:43:04.008Z,10.10
2023-04-14T10:45:14.289Z,10.20
2023-04-14T10:47:27.612Z,10.20
2023-04-14T10:49:36.813Z,10.20
2023-04-14T10:51:44.882Z,10.00
2023-04-14T10:53:54.507Z,9.80
2023-04-14T10:56:06.895Z,9.80
2023-04-14T10:58:25.759Z,9.90
2023-04-14T11:00:33.614Z,10.00
2023-04-14T11:02:38.976Z,10.20
2023-04-14T11:05:09.323Z,10.10
2023-04-14T11:07:24.768Z,10.20
2023-04-14T11:09:42.765Z,10.20
2023-04-14T11:11:52.243Z,10.20
2023-04-14T11:14:18.145Z,10.30
2023-04-14T11:16:32.506Z,10.50
2023-04-14T11:18:45.301Z,10.20
2023-04-14T11:20:57.762Z,10.40
2023-04-14T11:23:10.504Z,10.60
2023-04-14T11:25:24.745Z,10.70
2023-04-14T11:27:40.092Z,10.90
2023-04-14T11:29:58.341Z,10.90
2023-04-14T11:32:09.102Z,11.10
2023-04-14T11:34:38.872Z,11.00
2023-04-14T11:36:44.705Z,11.00
2023-04-14T11:38:52.320Z,10.70
2023-04-14T11:40:58.110Z,11.00
2023-04-14T11:43:06.127Z,11.40
2023-04-14T11:45:21.340Z,11.60
2023-04-14T11:47:26.605Z,11.80
2023-04-14T11:49:40.416Z,11.90
2023-04-14T11:51:47.939Z,11.80
2023-04-14T11:53:59.420Z,12.00
2023-04-14T11:56:04.589Z,12.10
2023-04-14T11:58:21.074Z,12.00
2023-04-14T12:00:27.690Z,11.60
2023-04-14T12:02:33.726Z,11.50
2023-04-14T12:04:41.565Z,11.60
2023-04-14T12:06:50.100Z,11.40
2023-04-14T12:08:57.090Z,11.80
2023-04-14T12:11:17.639Z,11.90
2023-04-14T12:13:25.265Z,11.70
2023-04-14T12:15:30.343Z,11.00
2023-04-14T12:17:38.718Z,10.80
2023-04-14T12:19:44.061Z,11.10
2023-04-14T12:21:55.827Z,11.10
2023-04-14T12:24:00.844Z,11.10
2023-04-14T12:26:06.548Z,11.40
2023-04-14T12:28:12.803Z,11.00
2023-04-14T12:30:25.464Z,10.90
2023-04-14T12:32:31.083Z,11.10
2023-04-14T12:34:37.908Z,11.10
2023-04-14T12:36:50.263Z,11.10
2023-04-14T12:38:55.795Z,11.20
2023-04-14T12:41:01.621Z,11.30
2023-04-14T12:43:08.802Z,11.30
2023-04-14T12:45:14.135Z,11.30
2023-04-14T12:47:33.418Z,11.30
2023-04-14T12:49:40.836Z,11.40
2023-04-14T12:51:46.146Z,11.40
2023-04-14T12:53:53.910Z,11.40
2023-04-14T12:56:19.898Z,11.20
2023-04-14T12:58:25.113Z,11.50
2023-04-14T13:00:32.060Z,11.20
2023-04-14T13:02:39.981Z,11.10
2023-04-14T13:04:45.946Z,11.30
2023-04-14T13:06:51.022Z,12.20
2023-04-14T13:09:01.128Z,12.10
2023-04-14T13:11:06.874Z,11.40
2023-04-14T13:13:12.266Z,11.80
2023-04-14T13:16:09.053Z,11.40
2023-04-14T13:17:45.884Z,11.60
2023-04-14T13:19:50.904Z,11.20
2023-04-14T13:21:59.299Z,11.30
2023-04-14T13:24:04.571Z,11.50
2023-04-14T13:26:11.331Z,11.80
2023-04-14T13:28:16.797Z,11.70
2023-04-14T13:30:23.398Z,12.00
2023-04-14T13:32:28.431Z,12.20
2023-04-14T13:34:36.040Z,12.40
2023-04-14T13:36:41.916Z,12.90
2023-04-14T13:38:47.408Z,13.00
2023-04-14T13:40:52.491Z,13.60
2023-04-14T13:42:57.969Z,13.90
2023-04-14T13:45:03.474Z,13.90
2023-04-14T13:47:08.597Z,13.70
2023-04-14T13:49:13.878Z,14.10
2023-04-14T13:51:22.334Z,13.80
2023-04-14T13:53:27.856Z,13.60
2023-04-14T13:55:34.247Z,14.30
2023-04-14T13:57:42.009Z,14.40
2023-04-14T13:59:47.214Z,14.00
2023-04-14T14:01:52.327Z,13.90
2023-04-14T14:03:57.970Z,14.50
2023-04-14T14:06:03.646Z,14.90
2023-04-14T14:08:11.454Z,15.60
2023-04-14T14:10:16.512Z,15.20
2023-04-14T14:12:21.674Z,14.40
2023-04-14T14:14:26.763Z,14.50
2023-04-14T14:16:37.159Z,14.60
2023-04-14T14:18:43.360Z,15.60
2023-04-14T14:20:49.759Z,16.20
2023-04-14T14:22:55.717Z,16.70
2023-04-14T14:25:18.572Z,16.60
2023-04-14T14:27:25.114Z,16.90
2023-04-14T14:29:32.528Z,16.90
2023-04-14T14:31:37.531Z,16.80
2023-04-14T14:33:43.229Z,17.20
2023-04-14T14:35:50.172Z,16.40
2023-04-14T14:37:56.322Z,16.40
2023-04-14T14:40:05.703Z,16.40
2023-04-14T14:42:11.131Z,17.00
2023-04-14T14:44:20.059Z,17.10
2023-04-14T14:46:25.927Z,16.70
2023-04-14T14:48:31.117Z,16.60
2023-04-14T14:50:36.201Z,16.10
2023-04-14T14:52:41.414Z,16.20
2023-04-14T14:54:46.384Z,15.80
2023-04-14T14:56:53.996Z,16.80
2023-04-14T14:58:59.074Z,17.70
2023-04-14T15:01:06.148Z,18.10
2023-04-14T15:03:12.397Z,18.70
2023-04-14T15:05:18.988Z,18.50
2023-04-14T15:07:24.034Z,18.20
2023-04-14T15:09:29.094Z,18.10
2023-04-14T15:11:34.188Z,16.90
2023-04-14T15:13:41.840Z,16.10
2023-04-14T15:15:47.348Z,15.90
2023-04-14T15:17:52.545Z,15.40
2023-04-14T15:19:58.505Z,16.10
2023-04-14T15:22:04.198Z,16.90
2023-04-14T15:24:09.927Z,17.10
2023-04-14T15:26:16.286Z,16.30
2023-04-14T15:28:21.889Z,16.00
2023-04-14T15:30:29.788Z,16.20
2023-04-14T15:32:34.943Z,15.90
2023-04-14T15:34:39.978Z,16.40
2023-04-14T15:36:45.466Z,16.30
2023-04-14T15:38:51.092Z,16.20
2023-04-14T15:40:58.064Z,16.70
2023-04-14T15:43:03.633Z,16.50
2023-04-14T15:45:10.797Z,15.50
2023-04-14T15:47:18.427Z,15.00
2023-04-14T15:49:23.424Z,16.00
2023-04-14T15:51:28.552Z,16.10
2023-04-14T15:53:33.677Z,16.00
2023-04-14T15:55:38.696Z,15.90
2023-04-14T15:57:46.382Z,15.60
2023-04-14T15:59:51.395Z,15.70
2023-04-14T16:02:01.083Z,16.10
2023-04-14T16:04:09.085Z,16.40
2023-04-14T16:06:14.524Z,16.20
2023-04-14T16:08:22.505Z,16.70
2023-04-14T16:10:29.053Z,16.90
2023-04-14T16:12:36.734Z,17.00
2023-04-14T16:14:43.307Z,17.10
2023-04-14T16:16:48.610Z,16.80
2023-04-14T16:18:54.032Z,16.80
2023-04-14T16:21:01.701Z,16.80
2023-04-14T16:23:06.749Z,16.80
2023-04-14T16:25:12.967Z,16.90
2023-04-14T16:27:18.005Z,16.80
2023-04-14T16:29:23.027Z,16.70
2023-04-14T16:31:28.116Z,16.20
2023-04-14T16:33:34.242Z,16.60
2023-04-14T16:35:39.302Z,16.90
2023-04-14T16:37:47.022Z,16.90
2023-04-14T16:39:56.147Z,16.70
2023-04-14T16:42:02.237Z,16.60
2023-04-14T16:44:07.422Z,16.70
2023-04-14T16:46:12.452Z,16.60
2023-04-14T16:48:17.708Z,16.80
2023-04-14T16:50:23.634Z,16.90
2023-04-14T16:52:29.079Z,16.30
2023-04-14T16:54:36.917Z,15.90
2023-04-14T16:56:42.203Z,15.90
2023-04-14T16:58:47.609Z,15.80
2023-04-14T17:00:54.200Z,15.70
2023-04-14T17:03:02.026Z,15.60
2023-04-14T17:05:10.321Z,15.50
2023-04-14T17:07:15.616Z,14.80
2023-04-14T17:09:20.633Z,14.40
2023-04-14T17:11:28.270Z,14.70
2023-04-14T17:13:33.095Z,14.60
2023-04-14T17:15:38.864Z,14.60
2023-04-14T17:17:43.971Z,15.00
2023-04-14T17:19:51.793Z,15.30
2023-04-14T17:21:57.575Z,15.60
2023-04-14T17:24:03.277Z,15.70
2023-04-14T17:26:09.811Z,16.50
2023-04-14T17:28:18.584Z,17.80
2023-04-14T17:30:24.724Z,18.40
2023-04-14T17:32:30.163Z,18.40
2023-04-14T17:34:36.947Z,17.30
2023-04-14T17:36:42.484Z,16.10
2023-04-14T17:38:48.099Z,15.50
2023-04-14T17:40:54.791Z,15.00
2023-04-14T17:43:00.724Z,14.60
2023-04-14T17:45:10.429Z,14.50
2023-04-14T17:47:15.879Z,14.40
2023-04-14T17:49:23.639Z,14.20
2023-04-14T17:51:28.978Z,13.90
2023-04-14T17:53:35.508Z,13.90
2023-04-14T17:55:40.922Z,13.80
2023-04-14T17:57:46.919Z,13.70
2023-04-14T17:59:54.549Z,13.60
2023-04-14T18:02:04.064Z,13.50
2023-04-14T18:04:09.168Z,13.50
2023-04-14T18:06:19.759Z,13.40
2023-04-14T18:08:24.862Z,13.50
2023-04-14T18:10:36.806Z,13.30
2023-04-14T18:12:47.080Z,13.20
2023-04-14T18:14:53.867Z,13.20
2023-04-14T18:17:03.872Z,13.00
2023-04-14T18:19:11.389Z,12.90
2023-04-14T18:21:22.318Z,13.00
2023-04-14T18:23:31.747Z,12.80
2023-04-14T18:29:54.706Z,12.60
2023-04-14T18:32:02.308Z,12.50
2023-04-14T18:34:09.508Z,12.40
2023-04-14T18:36:14.517Z,12.40
2023-04-14T18:38:23.948Z,12.20
2023-04-14T18:40:34.375Z,11.40
2023-04-14T18:42:41.788Z,10.70
2023-04-14T18:44:49.191Z,11.00
2023-04-14T18:46:55.355Z,11.40
2023-04-14T18:49:08.678Z,11.60
2023-04-14T18:51:16.503Z,11.60
2023-04-14T18:53:21.492Z,11.60
2023-04-14T18:55:37.201Z,11.50
2023-04-14T18:57:51.367Z,11.40
2023-04-14T18:59:56.405Z,11.20
2023-04-14T19:02:01.441Z,11.40
2023-04-14T19:04:14.516Z,11.20
2023-04-14T19:06:19.772Z,11.20
2023-04-14T19:08:25.432Z,11.10
2023-04-14T19:10:30.585Z,11.00
2023-04-14T19:12:51.394Z,10.90
2023-04-14T19:14:56.427Z,10.70
2023-04-14T19:17:05.664Z,10.50
2023-04-14T19:19:14.257Z,10.50
2023-04-14T19:21:23.854Z,10.30
2023-04-14T19:23:29.080Z,10.10
2023-04-14T19:25:35.252Z,10.10
2023-04-14T19:27:43.307Z,9.00
2023-04-14T19:29:48.612Z,8.70
2023-04-14T19:31:54.201Z,8.80
2023-04-14T19:34:02.648Z,9.30
2023-04-14T19:36:17.592Z,8.50
2023-04-14T19:38:22.593Z,8.90
2023-04-14T19:40:27.746Z,9.30
2023-04-14T19:42:40.189Z,9.40
2023-04-14T19:44:45.272Z,9.60
2023-04-14T19:46:50.873Z,9.40
2023-04-14T19:48:56.887Z,9.50
2023-04-14T19:51:04.686Z,9.50
2023-04-14T19:53:14.737Z,9.50
2023-04-14T19:55:24.466Z,9.60
2023-04-14T19:57:30.734Z,9.30
2023-04-14T19:59:37.621Z,9.30
2023-04-14T20:01:49.864Z,9.10
2023-04-14T20:04:05.066Z,9.30
2023-04-14T20:06:19.876Z,9.30
2023-04-14T20:08:30.575Z,9.00
2023-04-14T20:10:35.938Z,8.90
2023-04-14T20:12:59.540Z,8.90
2023-04-14T20:15:04.717Z,8.70
2023-04-14T20:17:10.160Z,8.60
2023-04-14T20:19:17.443Z,8.80
2023-04-14T20:21:22.780Z,8.70
2023-04-14T20:23:31.656Z,8.70
2023-04-14T20:25:37.290Z,8.70
2023-04-14T20:27:42.448Z,8.50
2023-04-14T20:29:47.466Z,8.60
2023-04-14T20:31:56.451Z,8.60
2023-04-14T20:34:02.063Z,8.50
2023-04-14T20:36:16.434Z,8.30
2023-04-14T20:38:22.591Z,8.10
2023-04-14T20:40:32.742Z,8.20
2023-04-14T20:43:04.144Z,7.50
2023-04-14T20:45:15.707Z,7.70
2023-04-14T20:47:21.194Z,8.20
2023-04-14T20:49:37.318Z,8.20
2023-04-14T20:51:51.000Z,7.00
2023-04-14T20:53:56.385Z,7.20
2023-04-14T20:56:04.458Z,7.50
2023-04-14T20:58:09.457Z,7.60
2023-04-14T21:00:19.141Z,7.60
2023-04-14T21:02:29.461Z,7.60
2023-04-14T21:04:34.975Z,7.50
2023-04-14T21:06:40.348Z,7.50
2023-04-14T21:08:46.374Z,7.70
2023-04-14T21:11:02.235Z,7.80
2023-04-14T21:15:30.527Z,7.70
2023-04-14T21:15:51.110Z,7.80
2023-04-14T21:17:57.757Z,7.40
2023-04-14T21:20:03.775Z,7.10
2023-04-14T21:22:11.148Z,7.30
2023-04-14T21:24:16.780Z,7.20
2023-04-14T21:26:24.782Z,7.30
2023-04-14T21:28:40.433Z,7.50
2023-04-14T21:30:46.516Z,7.30
2023-04-14T21:33:07.479Z,7.30
2023-04-14T21:35:13.678Z,7.20
2023-04-14T21:37:20.754Z,7.30
2023-04-14T21:39:28.523Z,7.20
2023-04-14T21:41:43.378Z,7.20
2023-04-14T21:43:51.644Z,7.00
2023-04-14T21:45:59.721Z,6.70
2023-04-14T21:48:06.029Z,6.90
2023-04-14T21:50:13.429Z,6.90
2023-04-14T21:52:28.167Z,7.10
2023-04-14T21:54:38.890Z,6.80
2023-04-14T21:56:46.352Z,7.00
2023-04-14T21:58:54.963Z,6.90
2023-04-14T22:01:00.443Z,6.90
2023-04-14T22:03:11.853Z,7.00
2023-04-14T22:05:18.472Z,7.10
2023-04-14T22:07:26.674Z,7.00
2023-04-14T22:09:34.089Z,7.10
2023-04-14T22:11:43.702Z,7.00
2023-04-14T22:13:55.165Z,6.90
2023-04-14T22:16:04.819Z,6.90
2023-04-14T22:18:09.899Z,6.90
2023-04-14T22:20:16.848Z,6.70
2023-04-14T22:22:32.850Z,6.50
2023-04-14T22:24:38.936Z,6.70
2023-04-14T22:26:44.565Z,6.40
2023-04-14T22:28:49.556Z,6.30
2023-04-14T22:30:58.609Z,6.10
2023-04-14T22:33:10.234Z,5.60
2023-04-14T22:35:16.002Z,5.90
2023-04-14T22:37:26.833Z,5.90
2023-04-14T22:39:33.167Z,6.10
2023-04-14T22:41:45.880Z,6.30
2023-04-14T22:43:51.011Z,6.30
2023-04-14T22:46:00.620Z,6.30
2023-04-14T22:48:07.055Z,6.00
2023-04-14T22:50:14.063Z,5.90
2023-04-14T22:52:22.565Z,6.10
2023-04-14T22:54:27.653Z,6.10
2023-04-14T22:56:34.508Z,6.10
2023-04-14T22:58:41.798Z,6.10
2023-04-14T23:00:48.760Z,6.20
2023-04-14T23:02:59.456Z,5.70
2023-04-14T23:05:07.149Z,5.80
2023-04-14T23:07:17.978Z,5.90
2023-04-14T23:09:23.881Z,6.00
2023-04-14T23:11:34.989Z,6.10
2023-04-14T23:13:40.122Z,6.20
2023-04-14T23:15:45.962Z,6.10
2023-04-14T23:17:51.198Z,6.10
2023-04-14T23:19:58.877Z,5.50
2023-04-14T23:22:04.534Z,5.40
2023-04-14T23:24:13.665Z,5.30
2023-04-14T23:26:19.808Z,5.30
2023-04-14T23:28:24.937Z,5.60
2023-04-14T23:30:32.704Z,5.70
2023-04-14T23:32:45.585Z,5.40
2023-04-14T23:34:52.023Z,5.30
2023-04-14T23:37:00.701Z,5.60
2023-04-14T23:39:05.971Z,5.70
2023-04-14T23:41:19.473Z,5.30
2023-04-14T23:43:24.672Z,5.00
2023-04-14T23:45:35.405Z,5.00
2023-04-14T23:47:41.060Z,5.30
2023-04-14T23:49:47.121Z,5.50
2023-04-14T23:51:54.310Z,5.60
2023-04-14T23:54:02.758Z,5.60
2023-04-14T23:56:11.727Z,5.80
2023-04-14T23:58:26.293Z,5.80
